Time;durP1;ratioP1;P1;durP2;ratioP2;P2;SDS_P1;SDS_P2;PMS_P1;PMS_P2;Temp;Humidity;BMP_temperature;BMP_pressure;BME280_temperature;BME280_humidity;BME280_pressure;Samples;Min_cycle;Max_cycle;Signal;HPM_P1;HPM_P2
2023/01/18 00:01:04;;;;;;;9.70;8.10;;;-0.40;99.90;;;;;;4984311;28;20109;-77
2023/01/18 00:03:33;;;;;;;9.83;7.87;;;-0.40;99.90;;;;;;4951617;28;20046;-76
2023/01/18 00:06:04;;;;;;;10.33;8.17;;;-0.50;99.90;;;;;;4985821;28;20050;-76
2023/01/18 00:08:34;;;;;;;9.67;8.67;;;-0.40;99.90;;;;;;4984608;28;20042;-73
2023/01/18 00:11:12;;;;;;;10.70;8.47;;;-0.50;99.90;;;;;;4982083;28;20064;-71
2023/01/18 00:13:38;;;;;;;10.50;8.23;;;-0.50;99.90;;;;;;4981893;28;20042;-70
2023/01/18 00:16:11;;;;;;;11.23;9.47;;;-0.50;99.90;;;;;;4968033;28;20494;-70
2023/01/18 00:18:37;;;;;;;9.80;8.43;;;-0.50;99.90;;;;;;4966168;28;20099;-76
2023/01/18 00:21:07;;;;;;;9.30;8.33;;;-0.60;99.90;;;;;;4984737;28;20061;-76
2023/01/18 00:23:42;;;;;;;9.38;7.95;;;-0.60;99.90;;;;;;4967988;28;20058;-74
2023/01/18 00:26:11;;;;;;;9.37;8.40;;;-0.60;99.90;;;;;;4985325;28;20034;-75
2023/01/18 00:28:38;;;;;;;11.63;9.50;;;-0.60;99.90;;;;;;4967363;28;20035;-75
2023/01/18 00:31:11;;;;;;;10.20;9.07;;;-0.60;99.90;;;;;;4954558;28;20096;-75
2023/01/18 00:33:37;;;;;;;9.83;8.63;;;-0.60;99.90;;;;;;4963512;28;20280;-75
2023/01/18 00:36:04;;;;;;;10.57;9.47;;;-0.60;99.90;;;;;;4983850;28;20137;-75
2023/01/18 00:38:30;;;;;;;9.93;8.50;;;-0.60;99.90;;;;;;4966341;28;20618;-75
2023/01/18 00:40:56;;;;;;;11.07;9.00;;;-0.60;99.90;;;;;;4983648;28;20050;-75
2023/01/18 00:43:37;;;;;;;10.50;9.00;;;-0.60;99.90;;;;;;4966767;28;20050;-75
2023/01/18 00:46:08;;;;;;;10.80;8.70;;;-0.60;99.90;;;;;;4983364;28;20046;-75
2023/01/18 00:48:35;;;;;;;10.77;8.57;;;-0.60;99.90;;;;;;4948632;28;20097;-75
2023/01/18 00:51:01;;;;;;;10.83;8.97;;;-0.60;99.90;;;;;;4966723;28;20072;-75
2023/01/18 00:53:27;;;;;;;12.37;9.33;;;-0.50;99.90;;;;;;4980998;28;20049;-75
2023/01/18 00:55:53;;;;;;;9.30;7.73;;;-0.60;99.90;;;;;;4969365;28;20486;-75
2023/01/18 00:58:19;;;;;;;10.53;9.00;;;-0.60;99.90;;;;;;4981117;28;20473;-75
2023/01/18 01:00:45;;;;;;;9.90;8.90;;;-0.60;99.90;;;;;;4967597;28;20105;-75
2023/01/18 01:03:14;;;;;;;10.07;8.80;;;-0.60;99.90;;;;;;4981672;28;20417;-75
2023/01/18 01:08:48;;;;;;;9.57;8.27;;;-0.70;99.90;;;;;;4886751;29;20052;-75
2023/01/18 01:11:14;;;;;;;;;;;-0.70;99.90;;;;;;4883975;29;20056;-75
2023/01/18 01:27:22;;;;;;;9.90;8.20;;;-0.80;99.90;;;;;;4896788;29;20060;-75
2023/01/18 01:29:51;;;;;;;10.27;8.47;;;-0.70;99.90;;;;;;4880306;29;20048;-75
2023/01/18 01:32:17;;;;;;;11.32;8.70;;;-0.80;99.90;;;;;;4900576;28;20054;-76
2023/01/18 01:34:43;;;;;;;11.23;9.10;;;-0.80;99.90;;;;;;4964629;28;20069;-75
2023/01/18 01:37:09;;;;;;;10.77;8.70;;;-0.60;99.90;;;;;;4959661;28;20059;-75
2023/01/18 01:39:35;;;;;;;11.50;10.03;;;-0.80;99.90;;;;;;4946521;28;20046;-75
2023/01/18 01:42:00;;;;;;;11.97;10.43;;;-0.70;99.90;;;;;;4965441;28;20125;-75
2023/01/18 01:44:28;;;;;;;11.03;9.53;;;-0.70;99.90;;;;;;4964083;28;20038;-75
2023/01/18 01:47:10;;;;;;;13.03;9.80;;;-0.70;99.90;;;;;;4965506;28;20129;-74
2023/01/18 01:49:51;;;;;;;11.93;9.17;;;-0.70;99.90;;;;;;4980796;28;20755;-75
2023/01/18 01:52:25;;;;;;;10.80;9.77;;;-0.70;99.90;;;;;;4964897;28;20054;-74
2023/01/18 01:55:01;;;;;;;11.80;10.10;;;-0.60;99.90;;;;;;4967579;28;20089;-75
2023/01/18 01:57:35;;;;;;;11.57;9.93;;;-0.60;99.90;;;;;;4985784;28;20516;-74
2023/01/18 02:00:12;;;;;;;11.07;9.97;;;-0.60;99.90;;;;;;4981067;28;20042;-74
2023/01/18 02:02:39;;;;;;;12.60;10.87;;;-0.60;99.90;;;;;;4972070;28;20501;-74
2023/01/18 02:05:07;;;;;;;11.57;10.40;;;-0.60;99.90;;;;;;4963291;28;20073;-74
2023/01/18 02:07:33;;;;;;;11.00;9.47;;;-0.70;99.90;;;;;;4967320;28;20050;-74
2023/01/18 02:10:00;;;;;;;11.63;10.10;;;-0.70;99.90;;;;;;4967538;28;20476;-75
2023/01/18 02:12:27;;;;;;;10.63;9.47;;;-0.70;99.90;;;;;;4966745;28;20062;-75
2023/01/18 02:14:55;;;;;;;11.13;9.93;;;-0.70;99.90;;;;;;4981920;28;20055;-75
2023/01/18 02:17:58;;;;;;;11.47;10.27;;;-0.70;99.90;;;;;;4982506;28;20039;-74
2023/01/18 02:20:45;;;;;;;12.30;10.30;;;-0.70;99.90;;;;;;4967217;28;20054;-74
2023/01/18 02:23:17;;;;;;;11.07;9.73;;;-0.70;99.90;;;;;;4980933;28;20043;-74
2023/01/18 02:26:08;;;;;;;11.37;10.17;;;-0.80;99.90;;;;;;4966855;28;20061;-75
2023/01/18 02:28:36;;;;;;;12.07;9.40;;;-0.70;99.90;;;;;;4982588;28;20042;-73
2023/01/18 02:31:18;;;;;;;11.47;9.37;;;-0.80;99.90;;;;;;4966749;28;20038;-74
2023/01/18 02:33:49;;;;;;;11.07;9.50;;;-0.80;99.90;;;;;;4960949;28;20090;-74
2023/01/18 02:36:33;;;;;;;12.23;10.77;;;-0.80;99.90;;;;;;4977786;28;20050;-73
2023/01/18 02:39:12;;;;;;;11.50;10.00;;;-0.80;99.90;;;;;;4981310;28;20042;-75
2023/01/18 02:47:27;;;;;;;11.50;10.30;;;-0.90;99.90;;;;;;4980405;28;20137;-74
2023/01/18 02:49:55;;;;;;;17.00;11.50;;;-0.90;99.90;;;;;;4985151;28;20042;-75
2023/01/18 02:52:41;;;;;;;13.73;11.73;;;-0.90;99.90;;;;;;4984605;28;20422;-75
2023/01/18 02:55:33;;;;;;;12.60;11.30;;;-0.90;99.90;;;;;;4986505;28;20034;-74
2023/01/18 02:58:22;;;;;;;13.70;12.30;;;-0.90;99.90;;;;;;4975836;28;20097;-75
2023/01/18 03:00:55;;;;;;;14.00;12.50;;;-1.00;99.90;;;;;;4966610;28;20068;-74
2023/01/18 03:03:23;;;;;;;13.40;11.57;;;-1.00;99.90;;;;;;4982332;28;20050;-74
2023/01/18 03:05:52;;;;;;;13.57;12.20;;;-0.90;99.90;;;;;;4970183;28;20092;-73
2023/01/18 03:08:42;;;;;;;13.33;11.93;;;-0.90;99.90;;;;;;4987924;28;20550;-75
2023/01/18 03:11:30;;;;;;;14.00;12.55;;;-0.90;99.90;;;;;;4969730;28;20519;-74
2023/01/18 03:14:26;;;;;;;15.03;13.43;;;-0.90;99.90;;;;;;4978565;28;20062;-74
2023/01/18 03:17:16;;;;;;;14.60;13.00;;;-0.90;99.90;;;;;;4986739;28;20440;-74
2023/01/18 03:20:08;;;;;;;14.60;13.13;;;-1.00;99.90;;;;;;4995012;28;20112;-74
2023/01/18 03:25:31;;;;;;;15.38;13.88;;;-1.00;99.90;;;;;;4982185;28;20073;-75
2023/01/18 03:33:46;;;;;;;14.87;13.13;;;-1.00;99.90;;;;;;4986401;28;20053;-75
2023/01/18 03:36:14;;;;;;;16.20;14.33;;;-1.00;99.90;;;;;;4986164;28;20078;-75
2023/01/18 03:38:43;;;;;;;16.20;14.50;;;-1.00;99.90;;;;;;4956526;28;20046;-75
2023/01/18 03:41:11;;;;;;;15.47;13.83;;;-1.00;99.90;;;;;;4967749;28;20043;-75
2023/01/18 03:43:40;;;;;;;15.73;13.93;;;-1.00;99.90;;;;;;4967551;28;20061;-76
2023/01/18 03:46:09;;;;;;;16.27;14.60;;;-1.00;99.90;;;;;;4965397;28;20053;-75
2023/01/18 03:48:35;;;;;;;14.90;13.33;;;-1.00;99.90;;;;;;4968740;28;20054;-76
2023/01/18 03:51:14;;;;;;;15.50;13.73;;;-1.00;99.90;;;;;;4951300;28;20042;-75
2023/01/18 03:54:08;;;;;;;15.73;13.87;;;-1.00;99.90;;;;;;4967804;28;20077;-76
2023/01/18 03:56:51;;;;;;;14.93;13.33;;;-1.00;99.90;;;;;;4982944;28;20050;-77
2023/01/18 03:59:17;;;;;;;14.83;13.30;;;-1.10;99.90;;;;;;4979252;28;20074;-76
2023/01/18 04:01:46;;;;;;;17.07;13.57;;;-1.10;99.90;;;;;;4976489;28;20047;-76
2023/01/18 04:04:13;;;;;;;14.43;12.93;;;-1.10;99.90;;;;;;4981904;28;20038;-76
2023/01/18 04:06:39;;;;;;;15.57;14.00;;;-1.00;99.90;;;;;;4981040;28;20038;-77
2023/01/18 04:09:06;;;;;;;15.70;14.00;;;-1.10;99.90;;;;;;4981983;28;20045;-76
2023/01/18 04:11:32;;;;;;;14.90;13.40;;;-1.10;99.90;;;;;;4965188;28;20337;-76
2023/01/18 04:13:58;;;;;;;14.07;12.73;;;-1.10;99.90;;;;;;4948973;28;20050;-77
2023/01/18 04:16:25;;;;;;;15.17;13.00;;;-1.10;99.90;;;;;;4950122;28;20591;-76
2023/01/18 04:18:51;;;;;;;15.33;13.73;;;-1.10;99.90;;;;;;4983943;28;20058;-76
2023/01/18 04:21:17;;;;;;;15.53;12.87;;;-1.10;99.90;;;;;;4986294;28;20053;-77
2023/01/18 04:23:43;;;;;;;16.80;15.10;;;-1.10;99.90;;;;;;4984567;28;20054;-77
2023/01/18 04:26:10;;;;;;;16.00;14.37;;;-1.10;99.90;;;;;;4987196;28;20788;-77
2023/01/18 04:28:36;;;;;;;16.10;14.47;;;-1.10;99.90;;;;;;4970339;28;20057;-77
2023/01/18 04:31:02;;;;;;;16.37;13.97;;;-1.10;99.90;;;;;;4987381;28;20050;-77
2023/01/18 04:33:28;;;;;;;16.17;13.70;;;-1.20;99.90;;;;;;4969343;28;20076;-77
2023/01/18 04:35:53;;;;;;;15.73;14.00;;;-1.10;99.90;;;;;;4969453;28;20124;-77
2023/01/18 04:38:19;;;;;;;19.10;14.97;;;-1.20;99.90;;;;;;4970168;28;20045;-77
2023/01/18 04:40:45;;;;;;;16.53;14.67;;;-1.20;99.90;;;;;;4984702;28;20046;-77
2023/01/18 04:43:11;;;;;;;16.23;14.63;;;-1.10;99.90;;;;;;4971105;28;20050;-78
2023/01/18 04:45:37;;;;;;;16.33;14.07;;;-1.20;99.90;;;;;;4961475;28;20129;-77
2023/01/18 04:48:03;;;;;;;15.87;14.23;;;-1.20;99.90;;;;;;4985963;28;20042;-77
2023/01/18 04:50:29;;;;;;;15.67;14.03;;;-1.10;99.90;;;;;;4970062;28;20049;-77
2023/01/18 04:52:54;;;;;;;15.20;13.70;;;-1.10;99.90;;;;;;4978084;28;20056;-77
2023/01/18 04:55:21;;;;;;;16.83;15.17;;;-1.10;99.90;;;;;;4967118;28;20079;-76
2023/01/18 04:57:55;;;;;;;16.33;14.57;;;-1.20;99.90;;;;;;4986280;28;20046;-77
2023/01/18 05:00:21;;;;;;;18.40;15.33;;;-1.10;99.90;;;;;;4965283;28;20046;-77
2023/01/18 05:02:47;;;;;;;18.03;14.40;;;-1.10;99.90;;;;;;4986075;28;20053;-76
2023/01/18 05:05:13;;;;;;;16.47;14.87;;;-1.00;99.90;;;;;;4953652;28;20033;-77
2023/01/18 05:07:38;;;;;;;16.30;14.77;;;-1.10;99.90;;;;;;4993743;28;20436;-77
2023/01/18 05:10:05;;;;;;;17.03;15.23;;;-1.10;99.90;;;;;;4966728;28;20037;-76
2023/01/18 05:12:30;;;;;;;15.57;13.93;;;-1.10;99.90;;;;;;4951890;28;20038;-77
2023/01/18 05:14:56;;;;;;;16.50;14.70;;;-1.10;99.90;;;;;;4966194;28;20049;-77
2023/01/18 05:17:26;;;;;;;19.10;15.50;;;-1.20;99.90;;;;;;4969591;28;20113;-77
2023/01/18 05:19:55;;;;;;;16.85;15.10;;;-1.10;99.90;;;;;;4980901;28;20267;-77
2023/01/18 05:22:22;;;;;;;16.43;14.73;;;-1.10;99.90;;;;;;4980096;28;20038;-78
2023/01/18 05:24:48;;;;;;;18.87;14.83;;;-1.10;99.90;;;;;;4980019;28;20310;-78
2023/01/18 05:27:14;;;;;;;17.43;15.57;;;-1.20;99.90;;;;;;4980387;28;20048;-77
2023/01/18 05:29:40;;;;;;;16.27;14.63;;;-1.20;99.90;;;;;;4961065;28;20059;-77
2023/01/18 05:32:06;;;;;;;16.73;14.97;;;-1.20;99.90;;;;;;4964306;28;20100;-78
2023/01/18 05:34:32;;;;;;;16.93;14.70;;;-1.20;99.90;;;;;;4980373;28;20096;-77
2023/01/18 05:36:58;;;;;;;17.47;14.90;;;-1.20;99.90;;;;;;4961826;28;20039;-77
2023/01/18 05:39:24;;;;;;;16.50;14.53;;;-1.20;99.90;;;;;;4948698;28;20502;-78
2023/01/18 05:41:50;;;;;;;17.37;15.37;;;-1.20;99.90;;;;;;4965949;28;20058;-78
2023/01/18 05:44:15;;;;;;;17.37;15.23;;;-1.20;99.90;;;;;;4947006;28;20560;-78
2023/01/18 05:46:41;;;;;;;15.73;14.23;;;-1.20;99.90;;;;;;4979459;28;20046;-78
2023/01/18 05:49:07;;;;;;;16.77;15.00;;;-1.20;99.90;;;;;;4980441;28;20106;-77
2023/01/18 05:51:34;;;;;;;16.27;14.57;;;-1.20;99.90;;;;;;4963000;28;20046;-77
2023/01/18 05:54:00;;;;;;;17.80;16.00;;;-1.20;99.90;;;;;;4946343;28;20207;-78
2023/01/18 05:56:26;;;;;;;16.73;15.07;;;-1.20;99.90;;;;;;4946842;28;20047;-78
2023/01/18 05:58:52;;;;;;;17.57;15.43;;;-1.30;99.90;;;;;;4961391;28;20585;-78
2023/01/18 06:01:18;;;;;;;16.57;14.80;;;-1.20;99.90;;;;;;4961945;28;20121;-78
2023/01/18 06:03:44;;;;;;;17.93;15.37;;;-1.20;99.90;;;;;;4945409;28;20609;-77
2023/01/18 06:06:09;;;;;;;16.00;14.30;;;-1.20;99.90;;;;;;4957848;28;20048;-78
2023/01/18 06:08:35;;;;;;;16.87;15.13;;;-1.20;99.90;;;;;;4961035;28;20316;-78
2023/01/18 06:11:06;;;;;;;21.07;15.03;;;-1.20;99.90;;;;;;4945048;28;20523;-69
2023/01/18 06:13:32;;;;;;;18.17;16.03;;;-1.20;99.90;;;;;;4965049;28;20137;-69
2023/01/18 06:15:59;;;;;;;15.33;13.73;;;-1.20;99.90;;;;;;4980002;28;20196;-69
2023/01/18 06:18:27;;;;;;;18.43;15.60;;;-1.10;99.90;;;;;;4954140;28;20123;-69
2023/01/18 06:20:53;;;;;;;16.53;14.83;;;-1.20;99.90;;;;;;4982188;28;20062;-69
2023/01/18 06:23:19;;;;;;;17.67;14.07;;;-1.20;99.90;;;;;;4967207;28;20042;-69
2023/01/18 06:25:45;;;;;;;16.97;14.30;;;-1.20;99.90;;;;;;4965168;28;20042;-68
2023/01/18 06:28:11;;;;;;;16.90;15.07;;;-1.20;99.90;;;;;;4970212;28;20041;-69
2023/01/18 06:30:37;;;;;;;17.93;15.80;;;-1.20;99.90;;;;;;4964338;28;20050;-69
2023/01/18 06:33:05;;;;;;;17.17;15.33;;;-1.10;99.90;;;;;;4964899;28;20511;-69
2023/01/18 06:35:35;;;;;;;17.53;15.30;;;-1.10;99.90;;;;;;4939815;28;20070;-69
2023/01/18 06:38:02;;;;;;;14.93;13.40;;;-1.10;99.90;;;;;;4948437;28;20050;-69
2023/01/18 06:40:28;;;;;;;19.17;15.23;;;-1.10;99.90;;;;;;4962754;28;20038;-72
2023/01/18 06:42:54;;;;;;;20.10;14.43;;;-1.10;99.90;;;;;;4984054;28;20042;-73
2023/01/18 06:45:21;;;;;;;15.00;13.40;;;-1.00;99.90;;;;;;4981402;28;20038;-73
2023/01/18 06:47:50;;;;;;;15.50;13.90;;;-1.00;99.90;;;;;;4966142;28;20058;-71
2023/01/18 06:50:16;;;;;;;15.60;13.50;;;-1.00;99.90;;;;;;4968516;28;20046;-72
2023/01/18 06:52:42;;;;;;;13.87;11.80;;;-1.00;99.90;;;;;;4982269;28;20054;-72
2023/01/18 06:55:09;;;;;;;17.43;12.50;;;-0.90;99.90;;;;;;4953485;28;20123;-72
2023/01/18 06:57:35;;;;;;;15.90;12.73;;;-0.90;99.90;;;;;;4965680;28;20038;-72
2023/01/18 07:00:04;;;;;;;12.60;10.70;;;-0.80;99.90;;;;;;4983479;28;20039;-72
2023/01/18 07:02:34;;;;;;;14.93;11.27;;;-0.80;99.90;;;;;;4993006;28;20077;-72
2023/01/18 07:05:01;;;;;;;14.02;10.93;;;-0.80;99.90;;;;;;4968742;28;20042;-73
2023/01/18 07:07:27;;;;;;;13.37;10.73;;;-0.70;99.90;;;;;;4969604;28;20046;-72
2023/01/18 07:09:53;;;;;;;12.33;10.17;;;-0.60;99.90;;;;;;4985202;28;20042;-72
2023/01/18 07:12:19;;;;;;;12.83;10.67;;;-0.50;99.90;;;;;;4988252;28;20045;-71
2023/01/18 07:14:57;;;;;;;12.90;11.33;;;-0.50;99.90;;;;;;4985478;28;20046;-73
2023/01/18 07:17:26;;;;;;;12.97;10.47;;;-0.40;99.90;;;;;;4947813;28;20068;-79
2023/01/18 07:19:52;;;;;;;14.13;10.87;;;-0.20;99.90;;;;;;4947949;28;20525;-79
2023/01/18 07:22:18;;;;;;;14.20;10.93;;;-0.20;99.90;;;;;;4985820;28;20165;-79
2023/01/18 07:24:45;;;;;;;12.17;10.17;;;-0.30;99.90;;;;;;4951356;28;20062;-80
2023/01/18 07:27:10;;;;;;;13.47;10.53;;;-0.20;99.90;;;;;;4970155;28;20405;-79
2023/01/18 07:29:36;;;;;;;14.20;10.73;;;-0.30;99.90;;;;;;4969272;28;20269;-78
2023/01/18 07:32:02;;;;;;;14.00;10.90;;;-0.10;99.90;;;;;;4967527;28;20125;-79
2023/01/18 07:34:28;;;;;;;13.70;11.07;;;-0.30;99.90;;;;;;4950332;28;20117;-79
2023/01/18 07:36:54;;;;;;;16.77;11.07;;;-0.30;99.90;;;;;;4969286;28;20042;-79
2023/01/18 07:39:19;;;;;;;15.30;10.87;;;-0.20;99.90;;;;;;4964804;28;20038;-76
2023/01/18 07:41:45;;;;;;;13.53;11.10;;;-0.20;99.90;;;;;;4951083;28;20046;-77
2023/01/18 07:44:12;;;;;;;13.87;10.27;;;-0.30;99.90;;;;;;4966433;28;20084;-76
2023/01/18 07:46:38;;;;;;;14.73;10.87;;;-0.30;99.90;;;;;;4984513;28;20077;-76
2023/01/18 07:49:04;;;;;;;13.53;11.13;;;-0.40;99.90;;;;;;4985849;28;20636;-76
2023/01/18 07:51:31;;;;;;;14.40;11.10;;;-0.40;99.90;;;;;;4969483;28;20364;-77
2023/01/18 07:53:57;;;;;;;13.87;10.60;;;-0.40;99.90;;;;;;4966797;28;20563;-76
2023/01/18 07:56:24;;;;;;;14.17;10.90;;;-0.40;99.90;;;;;;4950676;28;20034;-77
2023/01/18 07:58:51;;;;;;;13.37;10.57;;;-0.40;99.90;;;;;;4983377;28;20106;-77
2023/01/18 08:01:20;;;;;;;15.47;11.60;;;-0.30;99.90;;;;;;4967731;28;20050;-77
2023/01/18 08:03:48;;;;;;;14.90;10.77;;;-0.50;99.90;;;;;;4967779;28;20050;-77
2023/01/18 08:06:17;;;;;;;14.47;10.90;;;-0.40;99.90;;;;;;4985239;28;20057;-77
2023/01/18 08:08:43;;;;;;;15.65;11.10;;;-0.40;99.90;;;;;;4951095;28;20042;-77
2023/01/18 08:11:09;;;;;;;12.53;10.90;;;-0.40;99.90;;;;;;4984294;28;20057;-76
2023/01/18 08:13:35;;;;;;;11.93;10.43;;;-0.40;99.90;;;;;;4966948;28;20050;-76
2023/01/18 08:16:04;;;;;;;14.03;11.07;;;-0.50;99.90;;;;;;4969683;28;20096;-76
2023/01/18 08:18:31;;;;;;;14.43;11.30;;;-0.50;99.90;;;;;;4967655;28;20413;-75
2023/01/18 08:20:57;;;;;;;12.83;11.03;;;-0.50;99.90;;;;;;4952097;28;20070;-76
2023/01/18 08:23:23;;;;;;;14.23;12.30;;;-0.50;99.90;;;;;;4951004;28;20494;-76
2023/01/18 08:25:49;;;;;;;14.30;12.10;;;-0.50;99.90;;;;;;4951847;28;20085;-76
2023/01/18 08:28:16;;;;;;;14.13;11.93;;;-0.50;99.90;;;;;;4984963;28;20062;-76
2023/01/18 08:30:46;;;;;;;16.90;12.83;;;-0.50;99.90;;;;;;4967172;28;20053;-76
2023/01/18 08:33:12;;;;;;;14.85;12.88;;;-0.60;99.90;;;;;;4967704;28;20057;-76
2023/01/18 08:35:43;;;;;;;15.07;12.27;;;-0.50;99.90;;;;;;4967455;28;20604;-77
2023/01/18 08:38:09;;;;;;;14.87;12.67;;;-0.50;99.90;;;;;;4984055;28;20057;-76
2023/01/18 08:40:35;;;;;;;14.37;12.53;;;-0.50;99.90;;;;;;4982940;28;20050;-76
2023/01/18 08:43:02;;;;;;;15.57;12.83;;;-0.50;99.90;;;;;;4967476;28;20543;-76
2023/01/18 08:45:29;;;;;;;15.00;13.00;;;-0.50;99.90;;;;;;4966757;28;20046;-76
2023/01/18 08:47:56;;;;;;;16.03;12.47;;;-0.50;99.90;;;;;;4951764;28;20441;-76
2023/01/18 08:50:22;;;;;;;16.67;13.23;;;-0.40;99.90;;;;;;4982675;28;20053;-75
2023/01/18 08:52:48;;;;;;;15.63;13.10;;;-0.40;99.90;;;;;;4983350;28;20042;-76
2023/01/18 08:55:13;;;;;;;16.80;14.33;;;-0.40;99.90;;;;;;4968713;28;20141;-76
2023/01/18 08:57:39;;;;;;;18.57;15.83;;;-0.40;99.90;;;;;;4951787;28;20592;-76
2023/01/18 09:00:06;;;;;;;18.67;14.20;;;-0.40;99.90;;;;;;4949877;28;20043;-75
2023/01/18 09:02:32;;;;;;;14.93;13.33;;;-0.30;99.90;;;;;;4934443;28;20041;-76
2023/01/18 09:04:57;;;;;;;17.83;13.57;;;-0.30;99.90;;;;;;4953091;28;20046;-76
2023/01/18 09:07:23;;;;;;;16.40;13.40;;;-0.30;99.90;;;;;;4964732;28;20540;-76
2023/01/18 09:09:49;;;;;;;14.83;13.23;;;-0.20;99.90;;;;;;4967677;28;20474;-77
2023/01/18 09:12:14;;;;;;;15.30;13.70;;;-0.20;99.90;;;;;;4967592;28;20507;-76
2023/01/18 09:14:43;;;;;;;15.93;13.13;;;-0.20;99.90;;;;;;4952592;28;20054;-76
2023/01/18 09:17:09;;;;;;;15.23;13.63;;;-0.20;99.90;;;;;;4964169;28;20417;-76
2023/01/18 09:19:35;;;;;;;14.83;13.23;;;-0.20;99.90;;;;;;4967543;28;20058;-76
2023/01/18 09:22:01;;;;;;;14.57;12.60;;;-0.10;99.90;;;;;;4982336;28;20057;-76
2023/01/18 09:24:26;;;;;;;15.30;13.47;;;-0.10;99.90;;;;;;4967481;28;20046;-76
2023/01/18 09:26:52;;;;;;;16.37;14.53;;;0.00;99.90;;;;;;4965369;28;20050;-76
2023/01/18 09:29:19;;;;;;;15.53;13.97;;;0.10;99.90;;;;;;4965351;28;20489;-76
2023/01/18 09:31:45;;;;;;;16.30;14.60;;;0.00;99.90;;;;;;4966649;28;20485;-76
2023/01/18 09:34:15;;;;;;;15.53;13.87;;;0.10;99.90;;;;;;4980661;28;20053;-76
2023/01/18 09:36:41;;;;;;;;;;;0.10;99.90;;;;;;4982603;28;20058;-76
2023/01/18 09:39:07;;;;;;;17.50;14.63;;;0.00;99.90;;;;;;4982587;28;20411;-77
2023/01/18 09:41:48;;;;;;;17.50;14.40;;;0.10;99.90;;;;;;4966580;28;20045;-77
2023/01/18 09:44:31;;;;;;;16.30;13.90;;;0.20;99.90;;;;;;4979946;28;20053;-76
2023/01/18 09:47:03;;;;;;;14.83;13.30;;;0.20;99.90;;;;;;4983135;28;20065;-77
2023/01/18 09:49:53;;;;;;;17.30;14.03;;;0.20;99.90;;;;;;4965319;28;20574;-77
2023/01/18 09:52:31;;;;;;;18.10;15.63;;;0.30;99.90;;;;;;4984883;28;20489;-77
2023/01/18 09:55:32;;;;;;;16.17;14.17;;;0.30;99.90;;;;;;4985239;28;20054;-72
2023/01/18 09:58:01;;;;;;;;;;;0.40;99.90;;;;;;4969708;28;20078;-72
2023/01/18 10:00:30;;;;;;;16.03;13.33;;;0.50;99.90;;;;;;4986384;28;19925;-73
2023/01/18 10:03:07;;;;;;;14.83;13.37;;;0.50;99.90;;;;;;4984077;28;20057;-73
2023/01/18 10:05:39;;;;;;;14.83;13.23;;;0.50;99.90;;;;;;4987479;28;20097;-74
2023/01/18 10:08:17;;;;;;;14.33;12.80;;;0.60;99.90;;;;;;4969126;28;20042;-73
2023/01/18 10:10:56;;;;;;;15.33;13.70;;;0.70;99.90;;;;;;4969912;28;20121;-78
2023/01/18 10:13:31;;;;;;;15.27;12.57;;;0.80;99.90;;;;;;4968533;28;20496;-78
2023/01/18 10:15:57;;;;;;;14.67;13.17;;;0.80;99.90;;;;;;4970473;28;20084;-78
2023/01/18 10:18:24;;;;;;;14.63;12.97;;;0.90;99.90;;;;;;4969505;28;20498;-78
2023/01/18 10:20:56;;;;;;;15.07;12.13;;;0.90;99.90;;;;;;4985104;28;20350;-78
2023/01/18 10:23:51;;;;;;;14.03;12.40;;;1.00;99.90;;;;;;4970679;28;20069;-78
2023/01/18 10:26:29;;;;;;;14.40;12.93;;;1.10;99.90;;;;;;4970922;28;20055;-78
2023/01/18 10:29:37;;;;;;;14.17;12.27;;;1.20;99.90;;;;;;4968192;28;20113;-78
2023/01/18 10:32:13;;;;;;;13.17;11.53;;;1.20;99.90;;;;;;4987191;28;20171;-77
2023/01/18 10:34:45;;;;;;;13.57;11.20;;;1.30;99.90;;;;;;4987674;28;20058;-77
2023/01/18 10:37:16;;;;;;;15.07;11.70;;;1.50;99.90;;;;;;4984347;28;20417;-77
2023/01/18 10:40:00;;;;;;;15.30;11.23;;;1.50;99.90;;;;;;4985970;28;20092;-77
2023/01/18 10:42:32;;;;;;;13.27;11.23;;;1.60;99.90;;;;;;4984530;28;20046;-77
2023/01/18 10:44:58;;;;;;;14.60;10.27;;;1.60;99.90;;;;;;4983616;28;20096;-77
2023/01/18 10:47:24;;;;;;;13.33;10.67;;;1.70;99.90;;;;;;4970228;28;20046;-77
2023/01/18 10:49:55;;;;;;;12.60;9.97;;;1.80;99.90;;;;;;4984517;28;20048;-77
2023/01/18 10:52:27;;;;;;;12.23;10.93;;;1.80;99.90;;;;;;4969692;28;20042;-77
2023/01/18 10:55:01;;;;;;;11.90;10.03;;;1.90;99.90;;;;;;4984079;28;20049;-77
2023/01/18 10:57:33;;;;;;;12.50;10.10;;;1.90;99.90;;;;;;4984826;28;20049;-77
2023/01/18 10:59:59;;;;;;;12.30;9.40;;;2.00;99.90;;;;;;4968617;28;20172;-77
2023/01/18 11:02:36;;;;;;;12.87;10.03;;;2.10;99.90;;;;;;4952794;28;20203;-77
2023/01/18 11:05:21;;;;;;;11.73;9.50;;;2.10;99.90;;;;;;4985282;28;20049;-77
2023/01/18 11:07:47;;;;;;;12.47;9.00;;;2.20;99.90;;;;;;4968938;28;20100;-77
2023/01/18 11:10:31;;;;;;;15.30;10.40;;;2.20;99.90;;;;;;4970188;28;20062;-77
2023/01/18 11:12:57;;;;;;;12.80;9.50;;;2.40;99.90;;;;;;4983706;28;20501;-77
2023/01/18 11:15:26;;;;;;;11.77;9.00;;;2.40;99.90;;;;;;4983348;28;20034;-77
2023/01/18 11:17:57;;;;;;;10.65;8.10;;;2.40;99.90;;;;;;4982123;28;20552;-77
2023/01/18 11:20:45;;;;;;;12.57;8.67;;;2.50;99.90;;;;;;4985845;28;20073;-77
2023/01/18 11:23:20;;;;;;;11.32;8.38;;;2.50;99.90;;;;;;4984119;28;20046;-77
2023/01/18 11:25:52;;;;;;;11.15;8.05;;;2.60;99.90;;;;;;4967559;28;20101;-78
2023/01/18 11:28:22;;;;;;;9.80;7.57;;;2.70;99.90;;;;;;4986576;28;20106;-77
2023/01/18 11:31:11;;;;;;;11.52;7.63;;;2.80;99.90;;;;;;4985129;28;20440;-77
2023/01/18 11:33:51;;;;;;;10.20;7.90;;;2.80;99.90;;;;;;4969818;28;20596;-79
2023/01/18 11:36:19;;;;;;;10.70;7.55;;;2.90;99.90;;;;;;4967233;28;20181;-77
2023/01/18 11:38:46;;;;;;;10.07;7.20;;;3.00;99.90;;;;;;4967001;28;20057;-77
2023/01/18 11:41:20;;;;;;;10.70;7.82;;;3.00;99.90;;;;;;4968959;28;20448;-75
2023/01/18 11:44:02;;;;;;;11.00;7.40;;;3.00;99.90;;;;;;4984210;28;20058;-77
2023/01/18 11:46:42;;;;;;;10.10;6.90;;;3.10;99.90;;;;;;4983157;28;20195;-75
2023/01/18 11:49:31;;;;;;;11.10;7.53;;;3.10;99.90;;;;;;4968934;28;20038;-78
2023/01/18 11:52:02;;;;;;;9.50;7.90;;;3.30;99.90;;;;;;4984255;28;20425;-75
2023/01/18 11:54:52;;;;;;;10.50;7.70;;;3.20;99.90;;;;;;4969049;28;20077;-76
2023/01/18 11:57:18;;;;;;;8.90;7.25;;;3.30;99.90;;;;;;4984283;28;20116;-76
2023/01/18 11:59:46;;;;;;;10.13;7.03;;;3.30;99.90;;;;;;4984472;28;20393;-72
2023/01/18 12:02:31;;;;;;;12.60;8.18;;;3.30;99.90;;;;;;4984163;28;20329;-76
2023/01/18 12:04:59;;;;;;;9.70;7.25;;;3.40;99.90;;;;;;4984918;28;20532;-76
2023/01/18 12:07:37;;;;;;;11.90;6.70;;;3.40;99.90;;;;;;4966552;28;20397;-75
2023/01/18 12:10:09;;;;;;;10.35;6.88;;;3.40;99.90;;;;;;4984059;28;20058;-76
2023/01/18 12:12:46;;;;;;;11.40;7.15;;;3.50;99.90;;;;;;4953041;28;20042;-75
2023/01/18 12:15:40;;;;;;;11.13;6.65;;;3.50;99.90;;;;;;4981592;28;20054;-76
2023/01/18 12:18:11;;;;;;;10.27;6.78;;;3.50;99.90;;;;;;4967068;28;20628;-75
2023/01/18 12:20:40;;;;;;;;;;;3.50;99.90;;;;;;4982317;28;20583;-76
2023/01/18 12:23:14;;;;;;;9.00;7.07;;;3.40;99.90;;;;;;4981567;28;19922;-75
2023/01/18 12:26:16;;;;;;;9.35;6.85;;;3.50;99.90;;;;;;4968244;28;20065;-76
2023/01/18 12:28:49;;;;;;;13.13;7.82;;;3.50;99.90;;;;;;4981635;28;20049;-76
2023/01/18 12:31:43;;;;;;;10.80;7.30;;;3.60;99.90;;;;;;4984591;28;20493;-75
2023/01/18 12:34:20;;;;;;;11.40;7.38;;;3.60;99.90;;;;;;4967971;28;20377;-77
2023/01/18 12:37:16;;;;;;;11.57;7.80;;;3.70;99.90;;;;;;4969694;28;20057;-76
2023/01/18 12:40:06;;;;;;;9.68;7.20;;;3.70;99.90;;;;;;4966383;28;20046;-76
2023/01/18 12:43:03;;;;;;;10.43;7.28;;;3.70;99.90;;;;;;4984050;28;20065;-76
2023/01/18 12:45:40;;;;;;;9.95;7.32;;;3.70;99.90;;;;;;4964991;28;20054;-76
2023/01/18 12:48:16;;;;;;;10.68;8.32;;;3.80;99.90;;;;;;4978337;28;20046;-76
2023/01/18 12:50:45;;;;;;;10.38;7.70;;;3.80;99.90;;;;;;4982529;28;20493;-77
2023/01/18 12:53:32;;;;;;;11.73;7.28;;;3.80;99.90;;;;;;4984804;28;20043;-76
2023/01/18 12:56:01;;;;;;;8.82;7.82;;;3.80;99.90;;;;;;4982958;28;20052;-76
2023/01/18 12:58:27;;;;;;;13.45;7.18;;;3.80;99.90;;;;;;4967070;28;21059;-76
2023/01/18 13:00:58;;;;;;;13.07;7.93;;;3.80;99.90;;;;;;4951972;28;20046;-77
2023/01/18 13:03:30;;;;;;;10.60;7.72;;;3.80;99.90;;;;;;4981933;28;20062;-77
2023/01/18 13:05:58;;;;;;;11.45;7.88;;;3.80;99.90;;;;;;4982855;28;20274;-77
2023/01/18 13:08:46;;;;;;;9.43;7.25;;;3.90;99.90;;;;;;4966224;28;20031;-77
2023/01/18 13:11:25;;;;;;;8.23;6.57;;;3.90;99.90;;;;;;4982999;28;20105;-77
2023/01/18 13:14:12;;;;;;;11.07;7.50;;;4.00;99.90;;;;;;4968111;28;20196;-76
2023/01/18 13:16:47;;;;;;;11.10;7.40;;;4.00;99.90;;;;;;4982927;28;20345;-72
2023/01/18 13:19:24;;;;;;;10.27;7.43;;;4.10;99.90;;;;;;5002974;28;20513;-72
2023/01/18 13:22:02;;;;;;;11.02;7.50;;;4.10;99.90;;;;;;4986060;28;20050;-73
2023/01/18 13:24:48;;;;;;;11.38;6.55;;;4.10;99.90;;;;;;4984738;28;20083;-73
2023/01/18 13:27:16;;;;;;;8.10;6.53;;;4.20;99.90;;;;;;4964968;28;20094;-73